Terminal Aerodrome Forecast
Issued by NWS

Home | Current Version | Previous Version | Text Only | Print | Product List | Glossary On
Versions: 1 2 3 4 5 6 7 8 9 10 11 12 13 14 15 16 17 18 19 20 21 22 23 24 25 26 27 28 29 30 31 32 33 34
000
FTUS45 KGJT 262326
TAFEGE
TAF
KEGE 262326Z 2700/2724 27003KT P6SM VCSH SCT020 BKN060
      TEMPO 2700/2702 3SM -SN BR FEW010 BKN025
     FM270200 20005KT P6SM VCSH BKN040
     FM270600 00000KT 4SM BR OVC020
     FM271500 00000KT P6SM VCFG SCT020 OVC060
     FM271800 VRB03KT P6SM SCT060 BKN120
      AMD LTD TO CLD VIS AND WIND 2706/2714=

USA.gov is the U.S. government's official web portal to all federal, state and local government web resources and services.